SBI3276 UASK-UUDD
Flight info
| Callsign | SBI3276 |
|---|---|
| Flight time | N/A |
| Altitude | 36000 |
| Route | LIRNA1C LIRNA L994 TITUR N985 ORTIM L158 APTAR T787 URAGO URAGO3L |
| Aircraft | A320/M-SDE3FGHIRWY/LB1 |
Departure
| Time | 2026-05-06 11:02 |
|---|---|
| Airport | Oskemen International Airport (UASK) |
Arrival
| Time | N/A |
|---|---|
| Airport | Domodedovo International Airport (UUDD) |
| Time | Latitude | Longitude | Altitude | Speed | Heading |
|---|---|---|---|---|---|
| 2026-05-06 10:08 | 50.02606 | 82.50760 | 954 ft | 0 kts | 309° |
| 2026-05-06 10:56 | 50.02610 | 82.50753 | 953 ft | 3 kts | 309° |
| 2026-05-06 10:57 | 50.02636 | 82.50719 | 952 ft | 7 kts | 341° |
| 2026-05-06 10:57 | 50.02679 | 82.50758 | 953 ft | 7 kts | 40° |
| 2026-05-06 10:57 | 50.02725 | 82.50775 | 953 ft | 9 kts | 327° |
| 2026-05-06 10:57 | 50.02768 | 82.50700 | 953 ft | 9 kts | 310° |
| 2026-05-06 10:58 | 50.02806 | 82.50640 | 951 ft | 7 kts | 326° |
| 2026-05-06 10:58 | 50.02845 | 82.50630 | 953 ft | 5 kts | 0° |
| 2026-05-06 10:58 | 50.02875 | 82.50630 | 953 ft | 4 kts | 360° |
| 2026-05-06 10:58 | 50.02892 | 82.50630 | 953 ft | 4 kts | 1° |
| 2026-05-06 10:59 | 50.02919 | 82.50646 | 951 ft | 6 kts | 38° |
| 2026-05-06 10:59 | 50.02913 | 82.50715 | 950 ft | 8 kts | 128° |
| 2026-05-06 10:59 | 50.02867 | 82.50798 | 951 ft | 12 kts | 130° |
| 2026-05-06 10:59 | 50.02828 | 82.50896 | 952 ft | 10 kts | 98° |
| 2026-05-06 11:00 | 50.02829 | 82.50989 | 954 ft | 9 kts | 106° |
| 2026-05-06 11:00 | 50.02777 | 82.50997 | 954 ft | 5 kts | 230° |
| 2026-05-06 11:00 | 50.02779 | 82.50959 | 954 ft | 6 kts | 298° |
| 2026-05-06 11:00 | 50.02796 | 82.50927 | 954 ft | 0 kts | 312° |
| 2026-05-06 11:01 | 50.02797 | 82.50925 | 954 ft | 4 kts | 312° |
| 2026-05-06 11:01 | 50.02981 | 82.50592 | 950 ft | 78 kts | 310° |
| 2026-05-06 11:02 | 50.03476 | 82.49693 | 952 ft | 138 kts | 310° |
| 2026-05-06 11:02 | 50.04214 | 82.48368 | 1021 ft | 178 kts | 308° |
| 2026-05-06 11:02 | 50.05037 | 82.46875 | 1562 ft | 187 kts | 310° |
| 2026-05-06 11:02 | 50.05904 | 82.45302 | 2075 ft | 200 kts | 310° |
| 2026-05-06 11:03 | 50.06850 | 82.43589 | 2460 ft | 220 kts | 310° |
| 2026-05-06 11:03 | 50.07910 | 82.41666 | 2746 ft | 247 kts | 310° |
| 2026-05-06 11:03 | 50.09067 | 82.39558 | 3363 ft | 261 kts | 310° |
| 2026-05-06 11:03 | 50.10254 | 82.37398 | 4180 ft | 263 kts | 310° |
| 2026-05-06 11:04 | 50.11450 | 82.35216 | 4994 ft | 266 kts | 310° |
| 2026-05-06 11:04 | 50.12646 | 82.33030 | 5808 ft | 269 kts | 310° |
| 2026-05-06 11:04 | 50.13866 | 82.30800 | 6632 ft | 271 kts | 309° |
| 2026-05-06 11:04 | 50.15095 | 82.28556 | 7403 ft | 273 kts | 309° |
| 2026-05-06 11:05 | 50.16337 | 82.26299 | 8146 ft | 276 kts | 310° |
| 2026-05-06 11:05 | 50.17598 | 82.24012 | 8903 ft | 279 kts | 310° |
| 2026-05-06 11:05 | 50.18865 | 82.21709 | 9677 ft | 281 kts | 309° |
| 2026-05-06 11:05 | 50.20144 | 82.19376 | 10370 ft | 284 kts | 309° |
| 2026-05-06 11:06 | 50.21302 | 82.16869 | 11052 ft | 285 kts | 297° |
| 2026-05-06 11:06 | 50.21993 | 82.13998 | 11633 ft | 293 kts | 283° |
| 2026-05-06 11:06 | 50.22158 | 82.10714 | 11774 ft | 316 kts | 268° |
| 2026-05-06 11:06 | 50.22044 | 82.07166 | 11905 ft | 337 kts | 268° |
| 2026-05-06 11:07 | 50.21930 | 82.03418 | 12201 ft | 351 kts | 268° |
| 2026-05-06 11:07 | 50.21820 | 81.99582 | 12786 ft | 355 kts | 268° |
| 2026-05-06 11:07 | 50.21713 | 81.95710 | 13425 ft | 358 kts | 269° |
| 2026-05-06 11:07 | 50.21608 | 81.91804 | 14047 ft | 361 kts | 269° |
| 2026-05-06 11:08 | 50.21502 | 81.87877 | 14609 ft | 363 kts | 268° |
| 2026-05-06 11:08 | 50.21265 | 81.79465 | 15819 ft | 368 kts | 268° |
| 2026-05-06 11:08 | 50.21152 | 81.75470 | 16386 ft | 370 kts | 268° |
| 2026-05-06 11:09 | 50.21038 | 81.71440 | 16937 ft | 373 kts | 268° |
| 2026-05-06 11:09 | 50.20921 | 81.67387 | 17489 ft | 375 kts | 268° |
| 2026-05-06 11:09 | 50.20800 | 81.63299 | 18036 ft | 378 kts | 268° |
| 2026-05-06 11:09 | 50.20678 | 81.59187 | 18546 ft | 380 kts | 268° |
| 2026-05-06 11:10 | 50.20551 | 81.55023 | 19017 ft | 383 kts | 268° |
| 2026-05-06 11:10 | 50.20422 | 81.50848 | 19479 ft | 385 kts | 268° |
| 2026-05-06 11:10 | 50.20290 | 81.46718 | 19935 ft | 388 kts | 268° |
| 2026-05-06 11:10 | 50.20156 | 81.42490 | 20385 ft | 391 kts | 268° |
| 2026-05-06 11:11 | 50.20038 | 81.38247 | 20827 ft | 393 kts | 271° |
| 2026-05-06 11:11 | 50.20343 | 81.34006 | 21250 ft | 394 kts | 282° |
| 2026-05-06 11:11 | 50.20932 | 81.29808 | 21669 ft | 397 kts | 282° |
| 2026-05-06 11:11 | 50.21524 | 81.25586 | 22084 ft | 399 kts | 282° |
| 2026-05-06 11:12 | 50.22116 | 81.21335 | 22489 ft | 402 kts | 282° |
| 2026-05-06 11:12 | 50.22705 | 81.17060 | 22882 ft | 404 kts | 282° |
| 2026-05-06 11:12 | 50.22904 | 81.15608 | 23015 ft | 405 kts | 282° |
| 2026-05-06 11:13 | 50.25051 | 80.99872 | 24245 ft | 412 kts | 282° |
| 2026-05-06 11:13 | 50.25647 | 80.95489 | 24558 ft | 413 kts | 282° |
| 2026-05-06 11:13 | 50.26244 | 80.91083 | 24868 ft | 415 kts | 282° |
| 2026-05-06 11:14 | 50.26838 | 80.86666 | 25164 ft | 416 kts | 282° |
| 2026-05-06 11:14 | 50.27434 | 80.82225 | 25467 ft | 417 kts | 282° |
| 2026-05-06 11:14 | 50.28020 | 80.77834 | 25754 ft | 419 kts | 282° |
| 2026-05-06 11:14 | 50.28616 | 80.73366 | 26045 ft | 420 kts | 282° |
| 2026-05-06 11:15 | 50.29215 | 80.68872 | 26331 ft | 422 kts | 282° |
| 2026-05-06 11:15 | 50.29816 | 80.64368 | 26609 ft | 423 kts | 282° |
| 2026-05-06 11:15 | 50.30415 | 80.59853 | 26878 ft | 425 kts | 282° |
| 2026-05-06 11:15 | 50.31011 | 80.55323 | 27137 ft | 426 kts | 282° |
| 2026-05-06 11:16 | 50.31609 | 80.50771 | 27391 ft | 427 kts | 282° |
| 2026-05-06 11:16 | 50.32207 | 80.46203 | 27638 ft | 429 kts | 282° |
| 2026-05-06 11:16 | 50.32798 | 80.41669 | 27872 ft | 430 kts | 282° |
| 2026-05-06 11:16 | 50.33395 | 80.37074 | 28099 ft | 431 kts | 282° |
| 2026-05-06 11:17 | 50.33993 | 80.32468 | 28322 ft | 432 kts | 282° |
| 2026-05-06 11:17 | 50.34590 | 80.27842 | 28541 ft | 434 kts | 282° |
| 2026-05-06 11:17 | 50.35189 | 80.23205 | 28738 ft | 435 kts | 283° |
| 2026-05-06 11:17 | 50.35865 | 80.18588 | 28982 ft | 434 kts | 284° |
| 2026-05-06 11:18 | 50.36636 | 80.14020 | 29283 ft | 433 kts | 286° |
| 2026-05-06 11:18 | 50.37461 | 80.09488 | 29563 ft | 432 kts | 287° |
| 2026-05-06 11:18 | 50.38304 | 80.04974 | 29845 ft | 431 kts | 287° |
| 2026-05-06 11:18 | 50.39124 | 80.00514 | 30111 ft | 430 kts | 286° |
| 2026-05-06 11:19 | 50.39930 | 79.95997 | 30354 ft | 430 kts | 286° |
| 2026-05-06 11:19 | 50.40715 | 79.91472 | 30580 ft | 429 kts | 285° |
| 2026-05-06 11:19 | 50.41481 | 79.86956 | 30806 ft | 428 kts | 285° |
| 2026-05-06 11:19 | 50.42239 | 79.82433 | 31025 ft | 428 kts | 285° |
| 2026-05-06 11:20 | 50.42996 | 79.77919 | 31250 ft | 427 kts | 285° |
| 2026-05-06 11:20 | 50.43752 | 79.73426 | 31469 ft | 427 kts | 285° |
| 2026-05-06 11:20 | 50.44513 | 79.68926 | 31693 ft | 426 kts | 285° |
| 2026-05-06 11:20 | 50.45272 | 79.64441 | 31924 ft | 425 kts | 285° |
| 2026-05-06 11:21 | 50.46021 | 79.60007 | 32147 ft | 425 kts | 285° |
| 2026-05-06 11:21 | 50.46774 | 79.55529 | 32376 ft | 424 kts | 285° |
| 2026-05-06 11:21 | 50.47524 | 79.51055 | 32597 ft | 423 kts | 285° |
| 2026-05-06 11:21 | 50.48271 | 79.46586 | 32821 ft | 423 kts | 285° |
| 2026-05-06 11:22 | 50.49013 | 79.42132 | 33050 ft | 422 kts | 285° |
| 2026-05-06 11:22 | 50.49754 | 79.37672 | 33278 ft | 421 kts | 285° |
| 2026-05-06 11:22 | 50.50491 | 79.33226 | 33510 ft | 420 kts | 285° |
| 2026-05-06 11:22 | 50.51224 | 79.28789 | 33734 ft | 419 kts | 285° |
| 2026-05-06 11:23 | 50.51955 | 79.24358 | 33942 ft | 419 kts | 285° |
| 2026-05-06 11:23 | 50.53404 | 79.15497 | 33990 ft | 418 kts | 285° |
| 2026-05-06 11:24 | 50.54856 | 79.06650 | 33991 ft | 417 kts | 285° |
| 2026-05-06 11:24 | 50.56294 | 78.97813 | 33992 ft | 417 kts | 285° |
| 2026-05-06 11:25 | 50.57714 | 78.89024 | 33995 ft | 417 kts | 285° |
| 2026-05-06 11:25 | 50.59135 | 78.80190 | 33991 ft | 416 kts | 285° |
| 2026-05-06 11:26 | 50.60551 | 78.71346 | 33995 ft | 416 kts | 285° |
| 2026-05-06 11:26 | 50.61967 | 78.62488 | 33993 ft | 416 kts | 285° |
| 2026-05-06 11:27 | 50.63366 | 78.53632 | 33995 ft | 416 kts | 284° |
| 2026-05-06 11:27 | 50.64762 | 78.44783 | 33995 ft | 416 kts | 284° |
| 2026-05-06 11:28 | 50.66139 | 78.35998 | 33997 ft | 416 kts | 284° |
| 2026-05-06 11:28 | 50.67516 | 78.27142 | 33997 ft | 415 kts | 284° |
| 2026-05-06 11:29 | 50.68885 | 78.18294 | 33998 ft | 415 kts | 284° |
| 2026-05-06 11:29 | 50.70246 | 78.09439 | 34000 ft | 415 kts | 284° |
| 2026-05-06 11:30 | 50.71606 | 78.00586 | 34000 ft | 415 kts | 284° |
| 2026-05-06 11:30 | 50.72959 | 77.91741 | 34004 ft | 415 kts | 284° |
| 2026-05-06 11:31 | 50.74304 | 77.82881 | 34009 ft | 414 kts | 284° |
| 2026-05-06 11:31 | 50.75636 | 77.74014 | 34014 ft | 414 kts | 284° |
| 2026-05-06 11:32 | 50.76955 | 77.65227 | 34011 ft | 414 kts | 284° |
| 2026-05-06 11:32 | 50.78272 | 77.56362 | 34016 ft | 414 kts | 283° |
| 2026-05-06 11:33 | 50.79582 | 77.47513 | 34020 ft | 413 kts | 283° |
| 2026-05-06 11:33 | 50.80883 | 77.38649 | 34021 ft | 413 kts | 283° |
| 2026-05-06 11:34 | 50.82178 | 77.29807 | 34021 ft | 413 kts | 283° |
| 2026-05-06 11:34 | 50.83252 | 77.22454 | 34018 ft | 412 kts | 283° |
| 2026-05-06 11:35 | 50.84750 | 77.12164 | 34019 ft | 412 kts | 283° |
| 2026-05-06 11:35 | 50.85817 | 77.04753 | 34020 ft | 412 kts | 283° |
| 2026-05-06 11:36 | 50.87077 | 76.95905 | 34024 ft | 412 kts | 283° |
| 2026-05-06 11:36 | 50.88329 | 76.87125 | 34024 ft | 411 kts | 283° |
| 2026-05-06 11:37 | 50.89589 | 76.78282 | 34022 ft | 411 kts | 283° |
| 2026-05-06 11:37 | 50.90837 | 76.69439 | 34023 ft | 411 kts | 282° |
| 2026-05-06 11:38 | 50.92071 | 76.60600 | 34025 ft | 411 kts | 282° |
| 2026-05-06 11:38 | 50.92883 | 76.51646 | 34033 ft | 410 kts | 277° |
| 2026-05-06 11:39 | 50.93573 | 76.42660 | 34033 ft | 410 kts | 277° |
| 2026-05-06 11:39 | 50.94254 | 76.33682 | 34031 ft | 410 kts | 277° |
| 2026-05-06 11:40 | 50.94932 | 76.24763 | 34031 ft | 410 kts | 277° |
| 2026-05-06 11:40 | 50.95605 | 76.15789 | 34034 ft | 409 kts | 277° |
| 2026-05-06 11:41 | 50.96267 | 76.06818 | 34031 ft | 409 kts | 277° |
| 2026-05-06 11:41 | 50.96927 | 75.97854 | 34030 ft | 409 kts | 277° |
| 2026-05-06 11:42 | 50.97578 | 75.88884 | 34034 ft | 408 kts | 277° |
| 2026-05-06 11:42 | 50.98222 | 75.79928 | 34038 ft | 408 kts | 276° |
| 2026-05-06 11:43 | 50.98855 | 75.70980 | 34037 ft | 408 kts | 276° |
| 2026-05-06 11:43 | 50.99481 | 75.62112 | 34051 ft | 406 kts | 276° |
| 2026-05-06 11:44 | 51.00409 | 75.48774 | 34055 ft | 404 kts | 276° |
| 2026-05-06 11:44 | 51.01014 | 75.39911 | 34053 ft | 403 kts | 276° |
| 2026-05-06 11:45 | 51.01607 | 75.31049 | 34052 ft | 403 kts | 276° |
| 2026-05-06 11:45 | 51.02191 | 75.22268 | 34047 ft | 402 kts | 276° |
| 2026-05-06 11:46 | 51.02771 | 75.13424 | 34044 ft | 402 kts | 276° |
| 2026-05-06 11:46 | 51.03350 | 75.04590 | 34048 ft | 402 kts | 276° |
| 2026-05-06 11:47 | 51.03927 | 74.95763 | 34044 ft | 402 kts | 276° |
| 2026-05-06 11:47 | 51.04487 | 74.86919 | 34043 ft | 402 kts | 275° |
| 2026-05-06 11:48 | 51.05037 | 74.78083 | 34045 ft | 402 kts | 275° |
| 2026-05-06 11:48 | 51.05596 | 74.69242 | 34049 ft | 402 kts | 275° |
| 2026-05-06 11:49 | 51.06140 | 74.60391 | 34047 ft | 402 kts | 275° |
| 2026-05-06 11:49 | 51.06672 | 74.51597 | 34047 ft | 402 kts | 275° |
| 2026-05-06 11:50 | 51.07200 | 74.42744 | 34049 ft | 402 kts | 275° |
| 2026-05-06 11:50 | 51.07719 | 74.33894 | 34053 ft | 402 kts | 275° |
| 2026-05-06 11:51 | 51.08235 | 74.25041 | 34055 ft | 402 kts | 275° |
| 2026-05-06 11:51 | 51.08740 | 74.16173 | 34057 ft | 402 kts | 275° |
| 2026-05-06 11:52 | 51.09240 | 74.07387 | 34056 ft | 402 kts | 275° |
| 2026-05-06 11:52 | 51.09736 | 73.98538 | 34064 ft | 401 kts | 275° |
| 2026-05-06 11:53 | 51.10224 | 73.89695 | 34067 ft | 401 kts | 275° |
| 2026-05-06 11:53 | 51.10709 | 73.80850 | 34070 ft | 401 kts | 275° |
| 2026-05-06 11:54 | 51.11187 | 73.72022 | 34067 ft | 400 kts | 276° |
| 2026-05-06 11:54 | 51.11655 | 73.63195 | 34076 ft | 400 kts | 276° |
| 2026-05-06 11:55 | 51.12108 | 73.54389 | 34077 ft | 399 kts | 276° |
| 2026-05-06 11:55 | 51.12553 | 73.45587 | 34076 ft | 398 kts | 276° |
| 2026-05-06 11:56 | 51.12999 | 73.36804 | 34080 ft | 397 kts | 276° |
| 2026-05-06 11:56 | 51.13438 | 73.28104 | 34082 ft | 396 kts | 276° |
| 2026-05-06 11:57 | 51.13872 | 73.19358 | 34083 ft | 396 kts | 276° |
| 2026-05-06 11:57 | 51.14289 | 73.10636 | 34084 ft | 395 kts | 276° |
| 2026-05-06 11:58 | 51.14696 | 73.01928 | 34083 ft | 394 kts | 277° |
| 2026-05-06 11:58 | 51.14622 | 72.93201 | 34080 ft | 398 kts | 266° |
| 2026-05-06 11:59 | 51.13836 | 72.84552 | 34085 ft | 397 kts | 266° |
| 2026-05-06 11:59 | 51.13051 | 72.75863 | 34082 ft | 396 kts | 266° |
| 2026-05-06 12:00 | 51.12259 | 72.67184 | 34086 ft | 395 kts | 266° |
| 2026-05-06 12:00 | 51.11460 | 72.58540 | 34074 ft | 394 kts | 266° |
| 2026-05-06 12:01 | 51.10658 | 72.49921 | 34077 ft | 393 kts | 266° |
| 2026-05-06 12:01 | 51.09858 | 72.41380 | 34074 ft | 392 kts | 266° |
| 2026-05-06 12:02 | 51.09040 | 72.32798 | 34077 ft | 391 kts | 266° |
| 2026-05-06 12:02 | 51.08222 | 72.24254 | 34075 ft | 390 kts | 266° |
| 2026-05-06 12:03 | 51.07396 | 72.15735 | 34090 ft | 389 kts | 266° |
| 2026-05-06 12:03 | 51.06569 | 72.07234 | 34077 ft | 388 kts | 266° |
| 2026-05-06 12:04 | 51.05741 | 71.98751 | 34086 ft | 388 kts | 266° |
| 2026-05-06 12:04 | 51.04909 | 71.90283 | 34079 ft | 387 kts | 266° |
| 2026-05-06 12:05 | 51.04077 | 71.81911 | 34087 ft | 386 kts | 266° |
| 2026-05-06 12:05 | 51.03238 | 71.73490 | 34089 ft | 385 kts | 266° |
| 2026-05-06 12:06 | 51.02397 | 71.65093 | 34098 ft | 385 kts | 266° |
| 2026-05-06 12:06 | 51.01538 | 71.56704 | 34105 ft | 385 kts | 265° |
| 2026-05-06 12:07 | 51.00735 | 71.48316 | 34091 ft | 381 kts | 271° |
| 2026-05-06 12:07 | 51.01411 | 71.40108 | 34096 ft | 375 kts | 289° |
| 2026-05-06 12:08 | 51.03680 | 71.32644 | 34092 ft | 375 kts | 296° |
| 2026-05-06 12:08 | 51.06090 | 71.25277 | 34090 ft | 376 kts | 296° |
| 2026-05-06 12:09 | 51.08471 | 71.17935 | 34083 ft | 376 kts | 295° |
| 2026-05-06 12:09 | 51.10865 | 71.10545 | 34081 ft | 376 kts | 295° |
| 2026-05-06 12:10 | 51.13267 | 71.03153 | 34073 ft | 376 kts | 295° |
| 2026-05-06 12:10 | 51.15662 | 70.95735 | 34066 ft | 376 kts | 295° |
| 2026-05-06 12:11 | 51.18046 | 70.88315 | 34066 ft | 376 kts | 295° |
| 2026-05-06 12:11 | 51.20429 | 70.80886 | 34070 ft | 376 kts | 295° |
| 2026-05-06 12:12 | 51.22809 | 70.73449 | 34075 ft | 376 kts | 295° |
| 2026-05-06 12:12 | 51.25168 | 70.66053 | 34075 ft | 376 kts | 295° |
| 2026-05-06 12:13 | 51.27543 | 70.58588 | 34077 ft | 376 kts | 294° |
| 2026-05-06 12:13 | 51.29907 | 70.51133 | 34094 ft | 376 kts | 294° |
| 2026-05-06 12:14 | 51.32268 | 70.43665 | 34090 ft | 376 kts | 294° |
| 2026-05-06 12:14 | 51.34629 | 70.36181 | 34085 ft | 377 kts | 294° |
| 2026-05-06 12:15 | 51.36978 | 70.28683 | 34088 ft | 377 kts | 294° |
| 2026-05-06 12:15 | 51.39313 | 70.21222 | 34091 ft | 377 kts | 294° |
| 2026-05-06 12:16 | 51.41656 | 70.13708 | 34085 ft | 377 kts | 294° |
| 2026-05-06 12:16 | 51.43998 | 70.06166 | 34087 ft | 377 kts | 293° |
| 2026-05-06 12:17 | 51.46342 | 69.98619 | 34081 ft | 378 kts | 293° |
| 2026-05-06 12:17 | 51.48660 | 69.91125 | 34081 ft | 378 kts | 293° |
| 2026-05-06 12:18 | 51.51055 | 69.83599 | 34080 ft | 378 kts | 294° |
| 2026-05-06 12:18 | 51.53509 | 69.76121 | 34080 ft | 379 kts | 294° |
| 2026-05-06 12:19 | 51.55953 | 69.68623 | 34082 ft | 379 kts | 294° |
| 2026-05-06 12:19 | 51.58376 | 69.61097 | 34077 ft | 379 kts | 294° |
| 2026-05-06 12:20 | 51.60783 | 69.53554 | 34076 ft | 379 kts | 293° |
| 2026-05-06 12:20 | 51.63191 | 69.45997 | 34079 ft | 379 kts | 293° |
| 2026-05-06 12:21 | 51.65583 | 69.38476 | 34077 ft | 380 kts | 293° |
| 2026-05-06 12:21 | 51.67992 | 69.30900 | 34073 ft | 380 kts | 293° |
| 2026-05-06 12:22 | 51.70397 | 69.23312 | 34069 ft | 380 kts | 293° |
| 2026-05-06 12:22 | 51.72791 | 69.15713 | 34071 ft | 380 kts | 293° |
| 2026-05-06 12:23 | 51.75182 | 69.08097 | 34076 ft | 380 kts | 292° |
| 2026-05-06 12:23 | 51.77163 | 69.01764 | 34074 ft | 380 kts | 292° |
| 2026-05-06 12:24 | 51.79545 | 68.94134 | 34080 ft | 380 kts | 292° |
| 2026-05-06 12:24 | 51.81921 | 68.86489 | 34079 ft | 380 kts | 292° |
| 2026-05-06 12:25 | 51.84301 | 68.78840 | 34076 ft | 381 kts | 292° |
| 2026-05-06 12:25 | 51.86677 | 68.71190 | 34075 ft | 381 kts | 292° |
| 2026-05-06 12:26 | 51.89028 | 68.63572 | 34069 ft | 381 kts | 292° |
| 2026-05-06 12:26 | 51.91391 | 68.55886 | 34070 ft | 381 kts | 292° |
| 2026-05-06 12:27 | 51.93748 | 68.48199 | 34075 ft | 381 kts | 292° |
| 2026-05-06 12:27 | 51.96099 | 68.40502 | 34069 ft | 381 kts | 291° |
| 2026-05-06 12:28 | 51.98426 | 68.32784 | 34070 ft | 380 kts | 290° |
| 2026-05-06 12:28 | 52.00615 | 68.25037 | 34071 ft | 380 kts | 290° |
| 2026-05-06 12:29 | 52.02790 | 68.17208 | 34070 ft | 380 kts | 290° |
| 2026-05-06 12:29 | 52.04985 | 68.09379 | 34065 ft | 380 kts | 290° |
| 2026-05-06 12:30 | 52.07180 | 68.01560 | 34064 ft | 380 kts | 290° |
| 2026-05-06 12:30 | 52.09374 | 67.93722 | 34062 ft | 381 kts | 289° |
| 2026-05-06 12:31 | 52.11541 | 67.85927 | 34064 ft | 381 kts | 289° |
| 2026-05-06 12:31 | 52.13721 | 67.78058 | 34062 ft | 381 kts | 289° |
| 2026-05-06 12:32 | 52.15895 | 67.70192 | 34060 ft | 381 kts | 289° |
| 2026-05-06 12:32 | 52.18069 | 67.62314 | 34059 ft | 381 kts | 289° |
| 2026-05-06 12:33 | 52.20237 | 67.54414 | 34055 ft | 382 kts | 289° |
| 2026-05-06 12:33 | 52.22404 | 67.46506 | 34052 ft | 382 kts | 289° |
| 2026-05-06 12:34 | 52.24561 | 67.38586 | 34050 ft | 382 kts | 288° |
| 2026-05-06 12:34 | 52.26702 | 67.30695 | 34049 ft | 383 kts | 288° |
| 2026-05-06 12:35 | 52.28860 | 67.22744 | 34049 ft | 383 kts | 288° |
| 2026-05-06 12:35 | 52.31016 | 67.14776 | 34051 ft | 383 kts | 288° |
| 2026-05-06 12:36 | 52.33169 | 67.06809 | 34047 ft | 383 kts | 288° |
| 2026-05-06 12:36 | 52.35312 | 66.98821 | 34045 ft | 384 kts | 288° |
| 2026-05-06 12:37 | 52.37452 | 66.90808 | 34043 ft | 384 kts | 288° |
| 2026-05-06 12:37 | 52.39584 | 66.82783 | 34044 ft | 384 kts | 287° |
| 2026-05-06 12:38 | 52.41696 | 66.74785 | 34037 ft | 385 kts | 287° |
| 2026-05-06 12:38 | 52.43801 | 66.66714 | 34037 ft | 385 kts | 287° |
| 2026-05-06 12:39 | 52.45879 | 66.58610 | 34036 ft | 385 kts | 287° |
| 2026-05-06 12:39 | 52.47950 | 66.50506 | 34037 ft | 385 kts | 287° |
| 2026-05-06 12:40 | 52.50006 | 66.42425 | 34036 ft | 386 kts | 286° |
| 2026-05-06 12:40 | 52.52080 | 66.34283 | 34030 ft | 386 kts | 286° |
| 2026-05-06 12:41 | 52.54141 | 66.26140 | 34036 ft | 386 kts | 286° |
| 2026-05-06 12:41 | 52.56203 | 66.17977 | 34036 ft | 387 kts | 286° |
| 2026-05-06 12:42 | 52.58267 | 66.09797 | 34035 ft | 387 kts | 286° |
| 2026-05-06 12:42 | 52.60316 | 66.01601 | 34032 ft | 387 kts | 285° |
| 2026-05-06 12:43 | 52.62359 | 65.93388 | 34032 ft | 388 kts | 285° |
| 2026-05-06 12:43 | 52.64407 | 65.85174 | 34031 ft | 388 kts | 285° |
| 2026-05-06 12:44 | 52.66448 | 65.76936 | 34029 ft | 388 kts | 285° |
| 2026-05-06 12:44 | 52.68481 | 65.68688 | 34030 ft | 389 kts | 285° |
| 2026-05-06 12:45 | 52.70499 | 65.60475 | 34030 ft | 389 kts | 285° |
| 2026-05-06 12:46 | 52.73536 | 65.48054 | 34014 ft | 389 kts | 284° |
| 2026-05-06 12:46 | 52.75558 | 65.39747 | 34023 ft | 390 kts | 285° |
| 2026-05-06 12:47 | 52.77662 | 65.31471 | 34029 ft | 391 kts | 285° |
| 2026-05-06 12:47 | 52.79789 | 65.23182 | 34021 ft | 392 kts | 285° |
| 2026-05-06 12:48 | 52.81863 | 65.14866 | 34024 ft | 391 kts | 284° |
| 2026-05-06 12:48 | 52.83863 | 65.06494 | 34021 ft | 391 kts | 284° |
| 2026-05-06 12:49 | 52.85854 | 64.98105 | 34015 ft | 392 kts | 284° |
| 2026-05-06 12:49 | 52.87846 | 64.89749 | 34011 ft | 393 kts | 284° |
| 2026-05-06 12:50 | 52.89854 | 64.81329 | 34013 ft | 394 kts | 284° |
| 2026-05-06 12:50 | 52.91858 | 64.72879 | 34009 ft | 394 kts | 284° |
| 2026-05-06 12:51 | 52.93858 | 64.64416 | 34007 ft | 395 kts | 283° |
| 2026-05-06 12:51 | 52.95856 | 64.55919 | 34008 ft | 395 kts | 283° |
| 2026-05-06 12:52 | 52.97847 | 64.47414 | 34008 ft | 396 kts | 283° |
| 2026-05-06 12:52 | 52.99835 | 64.38885 | 34008 ft | 396 kts | 283° |
| 2026-05-06 12:53 | 53.01823 | 64.30333 | 34004 ft | 397 kts | 283° |
| 2026-05-06 12:53 | 53.03794 | 64.21809 | 34000 ft | 398 kts | 283° |
| 2026-05-06 12:54 | 53.05773 | 64.13215 | 33998 ft | 399 kts | 283° |
| 2026-05-06 12:54 | 53.07753 | 64.04591 | 33996 ft | 399 kts | 283° |
| 2026-05-06 12:55 | 53.09734 | 63.95943 | 33994 ft | 400 kts | 283° |
| 2026-05-06 12:55 | 53.11708 | 63.87268 | 33995 ft | 401 kts | 283° |
| 2026-05-06 12:56 | 53.13676 | 63.78569 | 33993 ft | 402 kts | 283° |
| 2026-05-06 12:56 | 53.15635 | 63.69898 | 33998 ft | 403 kts | 283° |
| 2026-05-06 12:57 | 53.17605 | 63.61142 | 33996 ft | 404 kts | 283° |
| 2026-05-06 12:57 | 53.19099 | 63.52214 | 33999 ft | 395 kts | 273° |
| 2026-05-06 12:58 | 53.19983 | 63.43145 | 33990 ft | 397 kts | 273° |
| 2026-05-06 12:58 | 53.20877 | 63.34040 | 33990 ft | 398 kts | 273° |
| 2026-05-06 12:59 | 53.21766 | 63.24903 | 33988 ft | 399 kts | 273° |
| 2026-05-06 12:59 | 53.22644 | 63.15734 | 33978 ft | 400 kts | 273° |
| 2026-05-06 13:00 | 53.23511 | 63.06606 | 33974 ft | 401 kts | 273° |
| 2026-05-06 13:00 | 53.24388 | 62.97381 | 33970 ft | 403 kts | 273° |
| 2026-05-06 13:01 | 53.25266 | 62.88107 | 33965 ft | 404 kts | 273° |
| 2026-05-06 13:01 | 53.26128 | 62.78817 | 33962 ft | 405 kts | 273° |
| 2026-05-06 13:02 | 53.26984 | 62.69501 | 33956 ft | 407 kts | 273° |
| 2026-05-06 13:02 | 53.27837 | 62.60203 | 33960 ft | 408 kts | 273° |
| 2026-05-06 13:03 | 53.28681 | 62.50815 | 33961 ft | 409 kts | 273° |
| 2026-05-06 13:03 | 53.29531 | 62.41370 | 33961 ft | 411 kts | 274° |
| 2026-05-06 13:04 | 53.30387 | 62.31907 | 33961 ft | 412 kts | 274° |
| 2026-05-06 13:04 | 53.31228 | 62.22414 | 33958 ft | 413 kts | 274° |
| 2026-05-06 13:05 | 53.32063 | 62.12875 | 33951 ft | 415 kts | 274° |
| 2026-05-06 13:05 | 53.32894 | 62.03355 | 33953 ft | 416 kts | 274° |
| 2026-05-06 13:06 | 53.33729 | 61.93743 | 33956 ft | 417 kts | 274° |
| 2026-05-06 13:06 | 53.34551 | 61.84115 | 33954 ft | 419 kts | 274° |
| 2026-05-06 13:07 | 53.35370 | 61.74442 | 33951 ft | 420 kts | 274° |
| 2026-05-06 13:07 | 53.36184 | 61.64742 | 33952 ft | 421 kts | 274° |
| 2026-05-06 13:08 | 53.36987 | 61.55087 | 33950 ft | 422 kts | 274° |
| 2026-05-06 13:08 | 53.37785 | 61.45324 | 33950 ft | 423 kts | 274° |
| 2026-05-06 13:09 | 53.38578 | 61.35550 | 33950 ft | 424 kts | 274° |
| 2026-05-06 13:09 | 53.39366 | 61.25737 | 33950 ft | 425 kts | 274° |
| 2026-05-06 13:10 | 53.40365 | 61.15947 | 33948 ft | 430 kts | 283° |
| 2026-05-06 13:10 | 53.42757 | 61.06671 | 33948 ft | 436 kts | 292° |
| 2026-05-06 13:10 | 53.44084 | 61.02081 | 34077 ft | 438 kts | 291° |
| 2026-05-06 13:11 | 53.45403 | 60.97471 | 34290 ft | 438 kts | 291° |
| 2026-05-06 13:11 | 53.46273 | 60.94418 | 34408 ft | 438 kts | 291° |
| 2026-05-06 13:11 | 53.48012 | 60.88293 | 34684 ft | 438 kts | 291° |
| 2026-05-06 13:11 | 53.49323 | 60.83678 | 34891 ft | 438 kts | 292° |
| 2026-05-06 13:12 | 53.50633 | 60.79065 | 35074 ft | 438 kts | 292° |
| 2026-05-06 13:12 | 53.51943 | 60.74453 | 35261 ft | 437 kts | 292° |
| 2026-05-06 13:12 | 53.52829 | 60.71332 | 35377 ft | 437 kts | 292° |
| 2026-05-06 13:12 | 53.54135 | 60.66717 | 35567 ft | 437 kts | 292° |
| 2026-05-06 13:13 | 53.55437 | 60.62101 | 35740 ft | 437 kts | 292° |
| 2026-05-06 13:13 | 53.56734 | 60.57485 | 35918 ft | 437 kts | 292° |
| 2026-05-06 13:13 | 53.58014 | 60.52924 | 35961 ft | 437 kts | 292° |
| 2026-05-06 13:14 | 53.60607 | 60.43659 | 35964 ft | 437 kts | 292° |
| 2026-05-06 13:14 | 53.63188 | 60.34382 | 35962 ft | 437 kts | 292° |
| 2026-05-06 13:15 | 53.65769 | 60.25090 | 35961 ft | 438 kts | 292° |
| 2026-05-06 13:15 | 53.68349 | 60.15771 | 35962 ft | 438 kts | 292° |
| 2026-05-06 13:16 | 53.70920 | 60.06432 | 35967 ft | 439 kts | 292° |
| 2026-05-06 13:16 | 53.73493 | 59.97070 | 35970 ft | 439 kts | 292° |
| 2026-05-06 13:17 | 53.76058 | 59.87688 | 35976 ft | 440 kts | 292° |
| 2026-05-06 13:17 | 53.78618 | 59.78285 | 35976 ft | 440 kts | 292° |
| 2026-05-06 13:18 | 53.81163 | 59.68866 | 35973 ft | 440 kts | 292° |
| 2026-05-06 13:18 | 53.83702 | 59.59420 | 35975 ft | 441 kts | 292° |
| 2026-05-06 13:19 | 53.86244 | 59.49974 | 35975 ft | 441 kts | 292° |
| 2026-05-06 13:19 | 53.88774 | 59.40491 | 35977 ft | 441 kts | 291° |
| 2026-05-06 13:20 | 53.90613 | 59.30703 | 35984 ft | 438 kts | 282° |
| 2026-05-06 13:20 | 53.92153 | 59.20676 | 35975 ft | 439 kts | 282° |
| 2026-05-06 13:21 | 53.93679 | 59.10658 | 35975 ft | 439 kts | 282° |
| 2026-05-06 13:21 | 53.95208 | 59.00628 | 35978 ft | 439 kts | 282° |
| 2026-05-06 13:22 | 53.96718 | 58.90640 | 35985 ft | 439 kts | 282° |
| 2026-05-06 13:22 | 53.98231 | 58.80575 | 35981 ft | 440 kts | 282° |
| 2026-05-06 13:23 | 53.99729 | 58.70498 | 35976 ft | 440 kts | 282° |
| 2026-05-06 13:23 | 54.01218 | 58.60398 | 35973 ft | 440 kts | 282° |
| 2026-05-06 13:24 | 54.02699 | 58.50295 | 35975 ft | 440 kts | 282° |
| 2026-05-06 13:24 | 54.04468 | 58.40315 | 35972 ft | 442 kts | 288° |
| 2026-05-06 13:25 | 54.06526 | 58.30520 | 35973 ft | 442 kts | 288° |
| 2026-05-06 13:25 | 54.08586 | 58.20641 | 35968 ft | 442 kts | 287° |
| 2026-05-06 13:26 | 54.10630 | 58.10760 | 35960 ft | 442 kts | 287° |
| 2026-05-06 13:26 | 54.12667 | 58.00864 | 35961 ft | 442 kts | 287° |
| 2026-05-06 13:27 | 54.14686 | 57.91017 | 35956 ft | 442 kts | 287° |
| 2026-05-06 13:27 | 54.16710 | 57.81097 | 35955 ft | 443 kts | 287° |
| 2026-05-06 13:28 | 54.18726 | 57.71166 | 35951 ft | 443 kts | 287° |
| 2026-05-06 13:28 | 54.20733 | 57.61216 | 35946 ft | 443 kts | 287° |
| 2026-05-06 13:29 | 54.22735 | 57.51259 | 35941 ft | 443 kts | 287° |
| 2026-05-06 13:29 | 54.24726 | 57.41294 | 35940 ft | 442 kts | 287° |
| 2026-05-06 13:30 | 54.26687 | 57.31387 | 35936 ft | 442 kts | 287° |
| 2026-05-06 13:30 | 54.28661 | 57.21415 | 35933 ft | 442 kts | 287° |
| 2026-05-06 13:31 | 54.30632 | 57.11447 | 35925 ft | 442 kts | 287° |
| 2026-05-06 13:31 | 54.32590 | 57.01447 | 35924 ft | 442 kts | 287° |
| 2026-05-06 13:32 | 54.34532 | 56.91441 | 35922 ft | 442 kts | 287° |
| 2026-05-06 13:32 | 54.36469 | 56.81435 | 35914 ft | 442 kts | 287° |
| 2026-05-06 13:33 | 54.38398 | 56.71420 | 35915 ft | 442 kts | 287° |
| 2026-05-06 13:33 | 54.40318 | 56.61403 | 35914 ft | 442 kts | 287° |
| 2026-05-06 13:34 | 54.42227 | 56.51426 | 35910 ft | 442 kts | 287° |
| 2026-05-06 13:34 | 54.44125 | 56.41393 | 35909 ft | 442 kts | 287° |
| 2026-05-06 13:35 | 54.46015 | 56.31338 | 35907 ft | 442 kts | 287° |
| 2026-05-06 13:35 | 54.47904 | 56.21268 | 35908 ft | 442 kts | 287° |
| 2026-05-06 13:36 | 54.49791 | 56.11192 | 35908 ft | 442 kts | 287° |
| 2026-05-06 13:36 | 54.51669 | 56.01122 | 35909 ft | 442 kts | 286° |
| 2026-05-06 13:37 | 54.53513 | 55.91090 | 35907 ft | 442 kts | 286° |
| 2026-05-06 13:37 | 54.55357 | 55.80994 | 35909 ft | 442 kts | 286° |
| 2026-05-06 13:38 | 54.57164 | 55.70850 | 35909 ft | 442 kts | 286° |
| 2026-05-06 13:38 | 54.58957 | 55.60712 | 35911 ft | 442 kts | 286° |
| 2026-05-06 13:39 | 54.60748 | 55.50581 | 35910 ft | 442 kts | 286° |
| 2026-05-06 13:39 | 54.62535 | 55.40451 | 35907 ft | 441 kts | 286° |
| 2026-05-06 13:40 | 54.64294 | 55.30353 | 35904 ft | 441 kts | 285° |
| 2026-05-06 13:40 | 54.66049 | 55.20191 | 35902 ft | 441 kts | 285° |
| 2026-05-06 13:41 | 54.67734 | 55.10002 | 35900 ft | 441 kts | 285° |
| 2026-05-06 13:41 | 54.69368 | 54.99772 | 35900 ft | 441 kts | 284° |
| 2026-05-06 13:42 | 54.70989 | 54.89550 | 35902 ft | 441 kts | 284° |
| 2026-05-06 13:42 | 54.72618 | 54.79391 | 35901 ft | 441 kts | 285° |
| 2026-05-06 13:43 | 54.74253 | 54.69170 | 35899 ft | 440 kts | 284° |
| 2026-05-06 13:43 | 54.75882 | 54.58940 | 35895 ft | 440 kts | 284° |
| 2026-05-06 13:44 | 54.77495 | 54.48714 | 35896 ft | 440 kts | 284° |
| 2026-05-06 13:44 | 54.79091 | 54.38471 | 35896 ft | 440 kts | 284° |
| 2026-05-06 13:45 | 54.80680 | 54.28226 | 35895 ft | 440 kts | 284° |
| 2026-05-06 13:45 | 54.83050 | 54.12899 | 35890 ft | 440 kts | 284° |
| 2026-05-06 13:46 | 54.84634 | 54.02647 | 35890 ft | 440 kts | 284° |
| 2026-05-06 13:46 | 54.86215 | 53.92381 | 35893 ft | 440 kts | 284° |
| 2026-05-06 13:47 | 54.87790 | 53.82112 | 35888 ft | 440 kts | 284° |
| 2026-05-06 13:48 | 54.90858 | 53.61720 | 35881 ft | 440 kts | 284° |
| 2026-05-06 13:48 | 54.92401 | 53.51426 | 35879 ft | 440 kts | 284° |
| 2026-05-06 13:49 | 54.93951 | 53.41122 | 35877 ft | 440 kts | 284° |
| 2026-05-06 13:49 | 54.95482 | 53.30806 | 35876 ft | 440 kts | 283° |
| 2026-05-06 13:50 | 54.96997 | 53.20482 | 35881 ft | 440 kts | 283° |
| 2026-05-06 13:50 | 54.98506 | 53.10150 | 35879 ft | 440 kts | 283° |
| 2026-05-06 13:51 | 55.00005 | 52.99811 | 35883 ft | 440 kts | 283° |
| 2026-05-06 13:51 | 55.01486 | 52.89534 | 35881 ft | 440 kts | 283° |
| 2026-05-06 13:52 | 55.02964 | 52.79184 | 35882 ft | 440 kts | 283° |
| 2026-05-06 13:52 | 55.04441 | 52.68818 | 35881 ft | 440 kts | 283° |
| 2026-05-06 13:53 | 55.05908 | 52.58463 | 35879 ft | 440 kts | 283° |
| 2026-05-06 13:53 | 55.07360 | 52.48096 | 35882 ft | 440 kts | 283° |
| 2026-05-06 13:54 | 55.08802 | 52.37725 | 35881 ft | 440 kts | 283° |
| 2026-05-06 13:54 | 55.10237 | 52.27346 | 35879 ft | 440 kts | 283° |
| 2026-05-06 13:55 | 55.11664 | 52.16963 | 35882 ft | 439 kts | 283° |
| 2026-05-06 13:55 | 55.13067 | 52.06641 | 35883 ft | 439 kts | 283° |
| 2026-05-06 13:56 | 55.14478 | 51.96248 | 35882 ft | 439 kts | 283° |
| 2026-05-06 13:56 | 55.15882 | 51.85862 | 35884 ft | 439 kts | 282° |
| 2026-05-06 13:57 | 55.17271 | 51.75480 | 35881 ft | 438 kts | 282° |
| 2026-05-06 13:57 | 55.18652 | 51.65078 | 35883 ft | 438 kts | 282° |
| 2026-05-06 13:58 | 55.20026 | 51.54681 | 35879 ft | 438 kts | 282° |
| 2026-05-06 13:58 | 55.21386 | 51.44293 | 35879 ft | 438 kts | 282° |
| 2026-05-06 13:59 | 55.22735 | 51.33965 | 35879 ft | 438 kts | 282° |
| 2026-05-06 13:59 | 55.24084 | 51.23566 | 35877 ft | 437 kts | 282° |
| 2026-05-06 14:00 | 55.25416 | 51.13165 | 35876 ft | 437 kts | 282° |
| 2026-05-06 14:00 | 55.26725 | 51.02751 | 35875 ft | 437 kts | 282° |
| 2026-05-06 14:01 | 55.28001 | 50.92327 | 35872 ft | 437 kts | 281° |
| 2026-05-06 14:01 | 55.29211 | 50.81865 | 35873 ft | 437 kts | 281° |
| 2026-05-06 14:02 | 55.30397 | 50.71411 | 35871 ft | 436 kts | 281° |
| 2026-05-06 14:02 | 55.31592 | 50.61033 | 35870 ft | 436 kts | 281° |
| 2026-05-06 14:03 | 55.32795 | 50.50599 | 35871 ft | 436 kts | 281° |
| 2026-05-06 14:03 | 55.33976 | 50.40144 | 35870 ft | 436 kts | 280° |
| 2026-05-06 14:04 | 55.34946 | 50.31461 | 35867 ft | 436 kts | 280° |
| 2026-05-06 14:04 | 55.36112 | 50.20998 | 35867 ft | 436 kts | 280° |
| 2026-05-06 14:05 | 55.37277 | 50.10522 | 35862 ft | 436 kts | 280° |
| 2026-05-06 14:05 | 55.38419 | 50.00138 | 35858 ft | 436 kts | 280° |
| 2026-05-06 14:06 | 55.39127 | 49.89568 | 35860 ft | 435 kts | 274° |
| 2026-05-06 14:06 | 55.39655 | 49.78962 | 35857 ft | 435 kts | 275° |
| 2026-05-06 14:07 | 55.40186 | 49.68352 | 35855 ft | 435 kts | 275° |
| 2026-05-06 14:07 | 55.40705 | 49.57741 | 35853 ft | 435 kts | 274° |
| 2026-05-06 14:08 | 55.41205 | 49.47183 | 35852 ft | 435 kts | 274° |
| 2026-05-06 14:08 | 55.41696 | 49.36562 | 35846 ft | 435 kts | 274° |
| 2026-05-06 14:09 | 55.42177 | 49.25942 | 35849 ft | 435 kts | 274° |
| 2026-05-06 14:09 | 55.42656 | 49.15317 | 35848 ft | 435 kts | 274° |
| 2026-05-06 14:10 | 55.43122 | 49.04694 | 35848 ft | 435 kts | 274° |
| 2026-05-06 14:10 | 55.43572 | 48.94069 | 35848 ft | 435 kts | 274° |
| 2026-05-06 14:11 | 55.44014 | 48.83510 | 35845 ft | 435 kts | 274° |
| 2026-05-06 14:11 | 55.44455 | 48.72895 | 35841 ft | 435 kts | 274° |
| 2026-05-06 14:12 | 55.44879 | 48.62277 | 35842 ft | 435 kts | 274° |
| 2026-05-06 14:12 | 55.45301 | 48.51652 | 35839 ft | 434 kts | 274° |
| 2026-05-06 14:13 | 55.45716 | 48.41026 | 35841 ft | 434 kts | 273° |
| 2026-05-06 14:13 | 55.46115 | 48.30407 | 35840 ft | 434 kts | 273° |
| 2026-05-06 14:14 | 55.46505 | 48.19788 | 35839 ft | 434 kts | 273° |
| 2026-05-06 14:14 | 55.46889 | 48.09229 | 35835 ft | 434 kts | 273° |
| 2026-05-06 14:15 | 55.47268 | 47.98611 | 35835 ft | 434 kts | 273° |
| 2026-05-06 14:15 | 55.47632 | 47.88057 | 35836 ft | 433 kts | 273° |
| 2026-05-06 14:16 | 55.47985 | 47.77447 | 35834 ft | 433 kts | 273° |
| 2026-05-06 14:16 | 55.48330 | 47.66834 | 35838 ft | 433 kts | 273° |
| 2026-05-06 14:17 | 55.48667 | 47.56228 | 35837 ft | 433 kts | 273° |
| 2026-05-06 14:17 | 55.48995 | 47.45695 | 35835 ft | 433 kts | 272° |
| 2026-05-06 14:18 | 55.49308 | 47.35095 | 35837 ft | 432 kts | 272° |
| 2026-05-06 14:18 | 55.49618 | 47.24505 | 35838 ft | 432 kts | 272° |
| 2026-05-06 14:19 | 55.49910 | 47.13924 | 35839 ft | 432 kts | 272° |
| 2026-05-06 14:19 | 55.50206 | 47.03348 | 35838 ft | 431 kts | 272° |
| 2026-05-06 14:20 | 55.50499 | 46.92780 | 35836 ft | 431 kts | 272° |
| 2026-05-06 14:20 | 55.50770 | 46.82258 | 35838 ft | 431 kts | 272° |
| 2026-05-06 14:21 | 55.51031 | 46.71689 | 35839 ft | 431 kts | 272° |
| 2026-05-06 14:21 | 55.51287 | 46.61122 | 35839 ft | 430 kts | 272° |
| 2026-05-06 14:22 | 55.51531 | 46.50550 | 35831 ft | 430 kts | 272° |
| 2026-05-06 14:22 | 55.51791 | 46.40061 | 35833 ft | 430 kts | 273° |
| 2026-05-06 14:23 | 55.52208 | 46.29533 | 35833 ft | 430 kts | 274° |
| 2026-05-06 14:23 | 55.52666 | 46.19009 | 35832 ft | 430 kts | 274° |
| 2026-05-06 14:24 | 55.53083 | 46.08491 | 35833 ft | 429 kts | 273° |
| 2026-05-06 14:24 | 55.53457 | 45.97968 | 35834 ft | 429 kts | 273° |
| 2026-05-06 14:25 | 55.53824 | 45.87446 | 35832 ft | 429 kts | 273° |
| 2026-05-06 14:25 | 55.54186 | 45.76922 | 35831 ft | 429 kts | 273° |
| 2026-05-06 14:26 | 55.54544 | 45.66473 | 35830 ft | 429 kts | 273° |
| 2026-05-06 14:26 | 55.54895 | 45.55960 | 35833 ft | 429 kts | 273° |
| 2026-05-06 14:27 | 55.55230 | 45.45446 | 35834 ft | 428 kts | 272° |
| 2026-05-06 14:27 | 55.55556 | 45.34933 | 35832 ft | 428 kts | 272° |
| 2026-05-06 14:28 | 55.55878 | 45.24433 | 35838 ft | 428 kts | 272° |
| 2026-05-06 14:28 | 55.56190 | 45.13921 | 35836 ft | 428 kts | 272° |
| 2026-05-06 14:29 | 55.56489 | 45.03411 | 35836 ft | 428 kts | 272° |
| 2026-05-06 14:29 | 55.56779 | 44.92979 | 35839 ft | 427 kts | 272° |
| 2026-05-06 14:30 | 55.57068 | 44.82485 | 35839 ft | 427 kts | 272° |
| 2026-05-06 14:30 | 55.57350 | 44.72000 | 35840 ft | 427 kts | 272° |
| 2026-05-06 14:31 | 55.57621 | 44.61519 | 35828 ft | 427 kts | 272° |
| 2026-05-06 14:31 | 55.57881 | 44.51025 | 35825 ft | 426 kts | 272° |
| 2026-05-06 14:32 | 55.58137 | 44.40556 | 35839 ft | 426 kts | 272° |
| 2026-05-06 14:32 | 55.58374 | 44.30076 | 35838 ft | 426 kts | 272° |
| 2026-05-06 14:33 | 55.58603 | 44.19607 | 35834 ft | 426 kts | 272° |
| 2026-05-06 14:33 | 55.58829 | 44.09192 | 35840 ft | 426 kts | 271° |
| 2026-05-06 14:34 | 55.59044 | 43.98725 | 35831 ft | 426 kts | 271° |
| 2026-05-06 14:34 | 55.59249 | 43.88269 | 35827 ft | 426 kts | 271° |
| 2026-05-06 14:35 | 55.59438 | 43.77810 | 35837 ft | 425 kts | 271° |
| 2026-05-06 14:35 | 55.59530 | 43.67343 | 35836 ft | 425 kts | 270° |
| 2026-05-06 14:36 | 55.59535 | 43.56891 | 35836 ft | 425 kts | 270° |
| 2026-05-06 14:36 | 55.59534 | 43.46423 | 35840 ft | 425 kts | 270° |
| 2026-05-06 14:37 | 55.59546 | 43.35965 | 35839 ft | 425 kts | 270° |
| 2026-05-06 14:37 | 55.59553 | 43.25583 | 35833 ft | 424 kts | 270° |
| 2026-05-06 14:38 | 55.59558 | 43.15125 | 35845 ft | 424 kts | 270° |
| 2026-05-06 14:38 | 55.59545 | 43.04689 | 35840 ft | 424 kts | 270° |
| 2026-05-06 14:39 | 55.59515 | 42.94265 | 35847 ft | 424 kts | 270° |
| 2026-05-06 14:39 | 55.59482 | 42.83842 | 35849 ft | 424 kts | 270° |
| 2026-05-06 14:40 | 55.59445 | 42.73476 | 35848 ft | 424 kts | 270° |
| 2026-05-06 14:40 | 55.59400 | 42.63062 | 35846 ft | 424 kts | 269° |
| 2026-05-06 14:41 | 55.59337 | 42.52634 | 35848 ft | 424 kts | 269° |
| 2026-05-06 14:41 | 55.59265 | 42.42206 | 35843 ft | 424 kts | 269° |
| 2026-05-06 14:42 | 55.59194 | 42.31751 | 35847 ft | 424 kts | 270° |
| 2026-05-06 14:42 | 55.59117 | 42.21338 | 35846 ft | 424 kts | 269° |
| 2026-05-06 14:43 | 55.59022 | 42.10971 | 35843 ft | 424 kts | 269° |
| 2026-05-06 14:43 | 55.58922 | 42.00542 | 35848 ft | 424 kts | 269° |
| 2026-05-06 14:44 | 55.58805 | 41.90111 | 35842 ft | 424 kts | 269° |
| 2026-05-06 14:45 | 55.58625 | 41.74445 | 35850 ft | 424 kts | 270° |
| 2026-05-06 14:45 | 55.58495 | 41.64012 | 35850 ft | 424 kts | 270° |
| 2026-05-06 14:46 | 55.58345 | 41.53587 | 35848 ft | 424 kts | 270° |
| 2026-05-06 14:46 | 55.58199 | 41.43158 | 35846 ft | 425 kts | 270° |
| 2026-05-06 14:47 | 55.58032 | 41.32714 | 35840 ft | 425 kts | 269° |
| 2026-05-06 14:47 | 55.57944 | 41.27481 | 35584 ft | 425 kts | 270° |
| 2026-05-06 14:47 | 55.57856 | 41.22262 | 35330 ft | 425 kts | 270° |
| 2026-05-06 14:47 | 55.57765 | 41.17043 | 35075 ft | 425 kts | 270° |
| 2026-05-06 14:48 | 55.57674 | 41.11880 | 34838 ft | 426 kts | 270° |
| 2026-05-06 14:48 | 55.57577 | 41.06642 | 34590 ft | 426 kts | 270° |
| 2026-05-06 14:48 | 55.57478 | 41.01403 | 34348 ft | 427 kts | 270° |
| 2026-05-06 14:48 | 55.57379 | 40.96156 | 34108 ft | 427 kts | 271° |
| 2026-05-06 14:49 | 55.57281 | 40.90897 | 33868 ft | 428 kts | 271° |
| 2026-05-06 14:49 | 55.57180 | 40.85632 | 33596 ft | 428 kts | 271° |
| 2026-05-06 14:49 | 55.57075 | 40.80371 | 33317 ft | 429 kts | 271° |
| 2026-05-06 14:49 | 55.56968 | 40.75099 | 33043 ft | 430 kts | 270° |
| 2026-05-06 14:50 | 55.56857 | 40.69826 | 32771 ft | 430 kts | 270° |
| 2026-05-06 14:50 | 55.56742 | 40.64539 | 32508 ft | 431 kts | 270° |
| 2026-05-06 14:50 | 55.56662 | 40.61036 | 32330 ft | 431 kts | 270° |
| 2026-05-06 14:50 | 55.56540 | 40.55734 | 32064 ft | 432 kts | 270° |
| 2026-05-06 14:51 | 55.56373 | 40.48698 | 31717 ft | 433 kts | 270° |
| 2026-05-06 14:51 | 55.56246 | 40.43384 | 31458 ft | 433 kts | 270° |
| 2026-05-06 14:51 | 55.56156 | 40.39793 | 31288 ft | 434 kts | 270° |
| 2026-05-06 14:51 | 55.56014 | 40.34470 | 31030 ft | 434 kts | 269° |
| 2026-05-06 14:52 | 55.55863 | 40.29143 | 30778 ft | 435 kts | 269° |
| 2026-05-06 14:52 | 55.55707 | 40.23807 | 29995 ft | 436 kts | 269° |
| 2026-05-06 14:52 | 55.55548 | 40.18424 | 28803 ft | 440 kts | 269° |
| 2026-05-06 14:52 | 55.55388 | 40.13092 | 28276 ft | 430 kts | 268° |
| 2026-05-06 14:53 | 55.55230 | 40.07892 | 27977 ft | 416 kts | 268° |
| 2026-05-06 14:53 | 55.55076 | 40.02892 | 27835 ft | 400 kts | 268° |
| 2026-05-06 14:53 | 55.55069 | 39.98117 | 27517 ft | 389 kts | 276° |
| 2026-05-06 14:53 | 55.55333 | 39.93398 | 27232 ft | 383 kts | 277° |
| 2026-05-06 14:54 | 55.55594 | 39.88738 | 26964 ft | 381 kts | 276° |
| 2026-05-06 14:54 | 55.55848 | 39.84088 | 26708 ft | 379 kts | 276° |
| 2026-05-06 14:54 | 55.56097 | 39.79461 | 26544 ft | 378 kts | 276° |
| 2026-05-06 14:54 | 55.56343 | 39.74847 | 26270 ft | 377 kts | 276° |
| 2026-05-06 14:55 | 55.56587 | 39.70249 | 25978 ft | 375 kts | 276° |
| 2026-05-06 14:55 | 55.56826 | 39.65654 | 25691 ft | 374 kts | 276° |
| 2026-05-06 14:55 | 55.57059 | 39.61089 | 25401 ft | 372 kts | 276° |
| 2026-05-06 14:55 | 55.57290 | 39.56537 | 25115 ft | 371 kts | 275° |
| 2026-05-06 14:56 | 55.57519 | 39.52010 | 24828 ft | 369 kts | 275° |
| 2026-05-06 14:56 | 55.57769 | 39.47501 | 24548 ft | 368 kts | 276° |
| 2026-05-06 14:56 | 55.58055 | 39.43015 | 24269 ft | 367 kts | 277° |
| 2026-05-06 14:56 | 55.58357 | 39.38550 | 23982 ft | 365 kts | 277° |
| 2026-05-06 14:57 | 55.58660 | 39.34096 | 23707 ft | 364 kts | 276° |
| 2026-05-06 14:57 | 55.58955 | 39.29659 | 23423 ft | 363 kts | 276° |
| 2026-05-06 14:57 | 55.59244 | 39.25240 | 23116 ft | 361 kts | 276° |
| 2026-05-06 14:57 | 55.59526 | 39.20838 | 22837 ft | 359 kts | 276° |
| 2026-05-06 14:58 | 55.59801 | 39.16451 | 22560 ft | 358 kts | 276° |
| 2026-05-06 14:58 | 55.60073 | 39.12090 | 22287 ft | 356 kts | 276° |
| 2026-05-06 14:58 | 55.60342 | 39.07745 | 22012 ft | 354 kts | 276° |
| 2026-05-06 14:58 | 55.60604 | 39.03468 | 21744 ft | 353 kts | 276° |
| 2026-05-06 14:59 | 55.60864 | 38.99166 | 21473 ft | 351 kts | 276° |
| 2026-05-06 14:59 | 55.60952 | 38.97713 | 21377 ft | 351 kts | 276° |